createdAt,value
2022-09-10T00:00:41.802Z,50.4
2022-09-10T00:01:58.062Z,53.8
2022-09-10T00:27:22.838Z,51.5
2022-09-10T00:40:05.435Z,54.4
2022-09-10T00:43:54.328Z,51.2
2022-09-10T00:45:10.637Z,53.6
2022-09-10T00:46:26.938Z,54.1
2022-09-10T00:50:15.832Z,54.7
2022-09-10T00:51:32.139Z,56.5
2022-09-10T00:54:04.850Z,57
2022-09-10T00:55:21.282Z,55.1
2022-09-10T00:56:36.631Z,57.2
2022-09-10T00:57:51.894Z,56.3
2022-09-10T00:59:08.138Z,50.4
2022-09-10T01:00:24.361Z,54.1
2022-09-10T01:01:40.623Z,54.1
2022-09-10T01:02:56.859Z,54.4
2022-09-10T01:04:13.084Z,52.2
2022-09-10T01:05:29.344Z,56
2022-09-10T01:06:45.577Z,52.5
2022-09-10T01:08:01.812Z,53.3
2022-09-10T01:09:18.038Z,52.5
2022-09-10T01:10:33.314Z,52.5
2022-09-10T01:11:48.566Z,58.6
2022-09-10T01:13:04.809Z,51.4
2022-09-10T01:14:21.047Z,57.5
2022-09-10T01:15:37.277Z,52.5
2022-09-10T01:16:53.513Z,54.1
2022-09-10T01:18:09.762Z,53.4
2022-09-10T01:19:25.992Z,53.4
2022-09-10T01:20:42.247Z,53.3
2022-09-10T01:21:58.476Z,54.4
2022-09-10T01:23:14.000Z,58.8
2022-09-10T01:24:29.982Z,54.7
2022-09-10T01:25:45.237Z,51.5
2022-09-10T01:27:01.466Z,53
2022-09-10T01:28:17.715Z,51.7
2022-09-10T01:29:33.962Z,53.6
2022-09-10T01:30:50.190Z,54.3
2022-09-10T01:32:06.425Z,54.9
2022-09-10T01:33:22.679Z,54.9
2022-09-10T01:34:38.900Z,52
2022-09-10T01:35:55.140Z,55.9
2022-09-10T01:37:11.379Z,52.8
2022-09-10T01:38:27.638Z,53.4
2022-09-10T01:39:43.863Z,54.7
2022-09-10T01:41:00.110Z,55.1
2022-09-10T01:42:15.369Z,56.2
2022-09-10T01:43:31.624Z,54.3
2022-09-10T01:44:47.849Z,52.2
2022-09-10T01:46:04.084Z,53.4
2022-09-10T01:47:20.314Z,51.5
2022-09-10T01:48:36.563Z,54.3
2022-09-10T01:49:52.804Z,52
2022-09-10T01:51:08.066Z,53.1
2022-09-10T01:52:23.309Z,55.4
2022-09-10T01:53:39.556Z,53
2022-09-10T01:54:55.792Z,53
2022-09-10T01:56:12.027Z,52.2
2022-09-10T01:57:28.267Z,56.7
2022-09-10T01:58:44.522Z,56.2
2022-09-10T02:00:00.742Z,54.4
2022-09-10T02:01:16.986Z,53.6
2022-09-10T02:02:33.219Z,53.6
2022-09-10T02:03:49.481Z,53.4
2022-09-10T02:05:05.715Z,53.6
2022-09-10T02:06:21.939Z,55.1
2022-09-10T02:07:38.197Z,52.5
2022-09-10T02:08:53.433Z,52.5
2022-09-10T02:10:09.685Z,51.7
2022-09-10T02:11:25.921Z,54.6
2022-09-10T02:12:41.180Z,56.2
2022-09-10T02:15:13.651Z,54.3
2022-09-10T02:16:29.899Z,51.5
2022-09-10T02:17:46.147Z,57.6
2022-09-10T02:19:01.405Z,56.7
2022-09-10T02:20:16.672Z,54.1
2022-09-10T02:21:32.907Z,52.2
2022-09-10T02:22:49.144Z,54.9
2022-09-10T02:24:05.368Z,57
2022-09-10T02:25:21.617Z,56.3
2022-09-10T02:26:37.865Z,55.7
2022-09-10T02:27:54.082Z,53.3
2022-09-10T02:29:10.321Z,52.6
2022-09-10T02:30:26.568Z,55.1
2022-09-10T02:31:42.808Z,52.8
2022-09-10T02:32:59.049Z,53.6
2022-09-10T02:34:15.295Z,57.3
2022-09-10T02:35:31.538Z,54.6
2022-09-10T02:36:46.791Z,55.1
2022-09-10T02:38:03.032Z,55.7
2022-09-10T02:39:18.275Z,54.4
2022-09-10T02:40:33.531Z,55.1
2022-09-10T02:41:49.770Z,56.2
2022-09-10T02:43:06.009Z,54.1
2022-09-10T02:44:22.255Z,55.5
2022-09-10T02:45:38.501Z,56.5
2022-09-10T02:46:54.745Z,53
2022-09-10T02:48:10.981Z,52.8
2022-09-10T02:49:27.208Z,56.2
2022-09-10T02:50:43.448Z,55.1
2022-09-10T02:51:59.686Z,55.5
2022-09-10T02:53:15.934Z,51.5
2022-09-10T02:54:32.181Z,58.9
2022-09-10T02:55:48.412Z,58
2022-09-10T02:57:03.663Z,57.2
2022-09-10T02:58:19.902Z,56.2
2022-09-10T02:59:36.144Z,58.1
2022-09-10T03:00:52.384Z,55.5
2022-09-10T03:02:08.626Z,52.5
2022-09-10T03:03:24.860Z,53.3
2022-09-10T03:04:41.100Z,56.5
2022-09-10T03:05:56.371Z,55.5
2022-09-10T03:07:11.614Z,55.4
2022-09-10T03:08:26.874Z,57
2022-09-10T03:09:42.150Z,55.5
2022-09-10T03:10:58.370Z,56.2
2022-09-10T03:12:14.617Z,54.9
2022-09-10T03:13:30.850Z,56.5
2022-09-10T03:14:47.088Z,53.9
2022-09-10T03:16:03.337Z,52
2022-09-10T03:17:19.579Z,53.8
2022-09-10T03:18:35.000Z,55.5
2022-09-10T03:19:52.054Z,55.5
2022-09-10T03:21:08.309Z,55.7
2022-09-10T03:22:24.526Z,55.7
2022-09-10T03:23:40.770Z,56.5
2022-09-10T03:24:57.003Z,52.3
2022-09-10T03:26:12.271Z,52.6
2022-09-10T03:27:28.514Z,53.4
2022-09-10T03:28:44.749Z,55.4
2022-09-10T03:30:00.992Z,54.4
2022-09-10T03:31:17.230Z,53.6
2022-09-10T03:32:33.463Z,53.3
2022-09-10T03:33:49.701Z,55.4
2022-09-10T03:35:04.956Z,56.7
2022-09-10T03:36:20.209Z,56.5
2022-09-10T03:37:35.477Z,56.8
2022-09-10T03:38:50.728Z,56.5
2022-09-10T03:40:06.003Z,57.2
2022-09-10T03:41:21.247Z,57.2
2022-09-10T03:42:37.483Z,56.7
2022-09-10T03:43:53.737Z,59.1
2022-09-10T03:45:09.971Z,55.9
2022-09-10T03:46:26.201Z,54.3
2022-09-10T03:47:42.439Z,54.4
2022-09-10T03:48:58.696Z,57
2022-09-10T03:51:31.175Z,54.4
2022-09-10T03:52:47.398Z,54.9
2022-09-10T03:54:03.636Z,53.4
2022-09-10T03:55:19.877Z,56
2022-09-10T03:56:36.115Z,56.2
2022-09-10T03:57:51.383Z,54.1
2022-09-10T03:59:07.627Z,50.7
2022-09-10T04:00:23.855Z,54.1
2022-09-10T04:01:40.085Z,55.7
2022-09-10T04:02:56.329Z,56.8
2022-09-10T04:04:12.583Z,55.1
2022-09-10T04:05:28.807Z,54.6
2022-09-10T04:06:44.069Z,55.7
2022-09-10T04:07:59.322Z,56.7
2022-09-10T04:09:14.581Z,52.5
2022-09-10T04:10:29.848Z,54.7
2022-09-10T04:11:46.084Z,56.2
2022-09-10T04:13:02.319Z,55.2
2022-09-10T04:14:18.559Z,56.2
2022-09-10T04:15:34.815Z,55.9
2022-09-10T04:16:51.041Z,55.5
2022-09-10T04:18:07.288Z,58.1
2022-09-10T04:19:23.515Z,53.9
2022-09-10T04:20:39.764Z,52.3
2022-09-10T04:21:56.011Z,56.5
2022-09-10T04:23:12.250Z,57.2
2022-09-10T04:24:28.499Z,56.3
2022-09-10T04:25:44.716Z,58.4
2022-09-10T04:26:59.989Z,55.9
2022-09-10T04:28:16.217Z,57.3
2022-09-10T04:29:32.454Z,55.9
2022-09-10T04:30:48.689Z,55.9
2022-09-10T04:32:04.933Z,54.9
2022-09-10T04:33:21.164Z,56.3
2022-09-10T04:34:37.420Z,56.7
2022-09-10T04:35:52.679Z,56.5
2022-09-10T04:37:07.933Z,55.9
2022-09-10T04:38:23.188Z,55.5
2022-09-10T04:39:38.453Z,56
2022-09-10T04:40:54.689Z,56.3
2022-09-10T04:42:10.931Z,58.3
2022-09-10T04:43:27.172Z,57.3
2022-09-10T04:44:43.396Z,56.3
2022-09-10T04:45:59.643Z,56
2022-09-10T04:47:15.880Z,60.1
2022-09-10T04:48:32.117Z,56.5
2022-09-10T04:49:48.361Z,56.3
2022-09-10T04:51:04.602Z,58
2022-09-10T04:52:20.836Z,54.9
2022-09-10T04:53:37.077Z,54.6
2022-09-10T04:54:53.314Z,56.5
2022-09-10T04:56:08.575Z,55.9
2022-09-10T04:57:24.806Z,56.8
2022-09-10T04:58:41.057Z,58.1
2022-09-10T04:59:57.291Z,56.8
2022-09-10T05:01:13.530Z,55.9
2022-09-10T05:02:29.775Z,57.6
2022-09-10T05:03:46.006Z,58.4
2022-09-10T05:05:01.277Z,55.9
2022-09-10T05:06:16.532Z,57
2022-09-10T05:07:32.769Z,57.2
2022-09-10T05:08:49.007Z,58.8
2022-09-10T05:10:05.251Z,55.7
2022-09-10T05:11:21.487Z,54.6
2022-09-10T05:12:37.719Z,53.4
2022-09-10T05:13:53.959Z,54.3
2022-09-10T05:15:10.212Z,56.7
2022-09-10T05:16:26.440Z,57.6
2022-09-10T05:17:42.687Z,55.2
2022-09-10T05:18:58.930Z,58.3
2022-09-10T05:20:15.161Z,56.5
2022-09-10T05:21:31.396Z,58
2022-09-10T05:22:46.663Z,57.2
2022-09-10T05:24:02.896Z,58.4
2022-09-10T05:25:19.129Z,60.1
2022-09-10T05:26:35.372Z,55.5
2022-09-10T05:27:51.609Z,56.7
2022-09-10T05:29:07.842Z,58.3
2022-09-10T05:30:24.080Z,57.6
2022-09-10T05:31:39.353Z,58.4
2022-09-10T05:32:54.617Z,56.2
2022-09-10T05:34:10.845Z,56
2022-09-10T05:35:27.078Z,59.2
2022-09-10T05:36:43.321Z,58
2022-09-10T05:37:59.571Z,57.6
2022-09-10T05:39:15.795Z,56.3
2022-09-10T05:40:32.042Z,57
2022-09-10T05:41:48.287Z,56.5
2022-09-10T05:43:04.512Z,55.5
2022-09-10T05:44:20.773Z,56
2022-09-10T05:45:36.995Z,55.4
2022-09-10T05:46:53.241Z,55.5
2022-09-10T05:48:09.476Z,56.3
2022-09-10T05:49:24.745Z,58.8
2022-09-10T05:50:40.982Z,56
2022-09-10T05:51:57.205Z,56.3
2022-09-10T05:53:13.451Z,56.3
2022-09-10T05:54:29.694Z,55.4
2022-09-10T05:55:45.934Z,56.7
2022-09-10T05:57:02.168Z,55.7
2022-09-10T05:58:18.405Z,54.4
2022-09-10T05:59:34.642Z,55.2
2022-09-10T06:00:50.897Z,55.5
2022-09-10T06:02:07.125Z,56.2
2022-09-10T06:03:23.371Z,57
2022-09-10T06:04:39.613Z,56.8
2022-09-10T06:05:54.859Z,57.3
2022-09-10T06:07:11.097Z,55.5
2022-09-10T06:08:27.341Z,54.3
2022-09-10T06:09:43.582Z,55.1
2022-09-10T06:10:59.827Z,55.9
2022-09-10T06:12:16.054Z,55.5
2022-09-10T06:13:32.299Z,54.6
2022-09-10T06:14:48.547Z,54.9
2022-09-10T06:16:04.787Z,56.3
2022-09-10T06:17:21.019Z,55.9
2022-09-10T06:18:37.259Z,55.5
2022-09-10T06:19:53.491Z,55.1
2022-09-10T06:21:09.737Z,54.3
2022-09-10T06:22:24.987Z,53.1
2022-09-10T06:23:41.224Z,54.1
2022-09-10T06:24:57.465Z,52.8
2022-09-10T06:26:13.701Z,55.1
2022-09-10T06:27:28.963Z,52
2022-09-10T06:28:45.200Z,51.5
2022-09-10T06:30:01.453Z,54.7
2022-09-10T06:31:17.699Z,52.5
2022-09-10T06:32:33.935Z,53
2022-09-10T06:33:50.157Z,54.7
2022-09-10T06:35:06.414Z,51.5
2022-09-10T06:36:22.652Z,51.8
2022-09-10T06:37:38.882Z,52.8
2022-09-10T06:38:55.113Z,50.9
2022-09-10T06:40:11.370Z,52
2022-09-10T06:41:27.598Z,49.1
2022-09-10T06:42:43.845Z,50.1
2022-09-10T06:43:59.087Z,51
2022-09-10T06:45:15.336Z,51.2
2022-09-10T06:46:31.571Z,52.6
2022-09-10T06:47:47.805Z,53.3
2022-09-10T06:49:04.052Z,53.3
2022-09-10T06:50:20.304Z,55.1
2022-09-10T06:51:36.537Z,60.2
2022-09-10T06:52:52.782Z,50.9
2022-09-10T06:54:09.012Z,59.6
2022-09-10T06:55:25.247Z,53.1
2022-09-10T06:59:13.976Z,50.7
2022-09-10T07:00:30.214Z,71
2022-09-10T07:09:23.888Z,60.5
2022-09-10T07:10:40.116Z,49.7
2022-09-10T07:13:12.568Z,49.9
2022-09-10T07:22:05.308Z,69.1
2022-09-10T07:28:26.475Z,50.5
2022-09-10T07:29:41.725Z,51.4
2022-09-10T07:52:34.024Z,48.5
2022-09-10T07:53:50.309Z,47.5
2022-09-10T08:07:49.286Z,47.6
2022-09-10T08:09:04.617Z,48
2022-09-10T08:10:19.927Z,48.6
2022-09-10T08:11:35.198Z,46.5
2022-09-10T08:12:51.429Z,48.6
2022-09-10T08:14:07.659Z,47.3
2022-09-10T08:15:23.903Z,46.4
2022-09-10T08:16:40.146Z,48.6
2022-09-10T08:17:56.380Z,50.5
2022-09-10T08:19:12.617Z,49.4
2022-09-10T08:21:45.099Z,47.8
2022-09-10T08:24:17.571Z,48.6
2022-09-10T08:25:33.813Z,48.1
2022-09-10T08:26:50.049Z,48.3
2022-09-10T08:28:05.324Z,47.2
2022-09-10T08:29:21.561Z,52.8
2022-09-10T08:30:37.792Z,48.9
2022-09-10T08:31:54.036Z,50.7
2022-09-10T08:33:10.279Z,48.9
2022-09-10T08:34:26.509Z,49.3
2022-09-10T08:35:42.756Z,50.1
2022-09-10T08:36:58.999Z,49.1
2022-09-10T08:38:15.232Z,49.9
2022-09-10T08:40:47.700Z,47.6
2022-09-10T08:47:07.924Z,50.1
2022-09-10T08:48:24.145Z,48.6
2022-09-10T08:49:39.423Z,48.5
2022-09-10T08:50:54.671Z,48.1
2022-09-10T08:52:10.926Z,48.6
2022-09-10T08:53:27.155Z,52.2
2022-09-10T08:54:43.382Z,47.3
2022-09-10T08:55:59.634Z,52.5
2022-09-10T08:57:15.871Z,51
2022-09-10T08:58:32.119Z,48.3
2022-09-10T09:01:04.589Z,47.3
2022-09-10T09:02:20.840Z,52.2
2022-09-10T09:04:53.313Z,47.3
2022-09-10T09:06:09.541Z,47.3
2022-09-10T09:07:24.815Z,48.8
2022-09-10T09:08:41.030Z,47.3
2022-09-10T09:09:57.274Z,47.5
2022-09-10T09:11:13.517Z,47.5
2022-09-10T09:16:18.485Z,48.1
2022-09-10T09:18:50.949Z,48.3
2022-09-10T09:20:07.184Z,49.1
2022-09-10T09:21:23.430Z,48.3
2022-09-10T09:22:38.688Z,61.3
2022-09-10T09:23:53.950Z,47.8
2022-09-10T09:25:10.179Z,49.4
2022-09-10T09:26:26.000Z,47.5
2022-09-10T09:27:42.658Z,60.7
2022-09-10T09:28:58.908Z,52.5
2022-09-10T09:31:31.377Z,48
2022-09-10T09:35:20.114Z,48.8
2022-09-10T09:40:25.050Z,45.7
2022-09-10T09:44:13.785Z,48.6
2022-09-10T09:45:29.043Z,46.2
2022-09-10T09:46:45.268Z,46.5
2022-09-10T09:51:50.226Z,52
2022-09-10T09:53:06.474Z,46.2
2022-09-10T09:54:22.695Z,47.3
2022-09-10T09:55:38.938Z,47.3
2022-09-10T09:56:55.192Z,46.2
2022-09-10T09:58:11.420Z,47.6
2022-09-10T09:59:27.662Z,46.8
2022-09-10T10:00:43.889Z,48.3
2022-09-10T10:01:59.168Z,44.4
2022-09-10T10:03:14.414Z,45.7
2022-09-10T10:04:29.671Z,44.1
2022-09-10T10:05:44.937Z,45.2
2022-09-10T10:07:00.194Z,45.1
2022-09-10T10:08:15.447Z,44.7
2022-09-10T10:10:46.938Z,46
2022-09-10T10:12:02.210Z,44.9
2022-09-10T10:13:18.452Z,45.7
2022-09-10T10:14:33.707Z,45.1
2022-09-10T10:15:49.938Z,48.5
2022-09-10T10:17:06.174Z,45.9
2022-09-10T10:18:22.418Z,44.7
2022-09-10T10:19:38.655Z,45.1
2022-09-10T10:20:54.884Z,46.2
2022-09-10T10:22:11.140Z,52.8
2022-09-10T10:24:43.617Z,47.6
2022-09-10T10:25:59.859Z,50.4
2022-09-10T10:28:32.331Z,46
2022-09-10T10:29:48.577Z,45.7
2022-09-10T10:31:03.830Z,45.9
2022-09-10T10:32:20.068Z,46.5
2022-09-10T10:33:36.297Z,45.9
2022-09-10T10:34:52.536Z,45.2
2022-09-10T10:36:08.786Z,45.7
2022-09-10T10:37:25.024Z,46.5
2022-09-10T10:38:41.257Z,50.9
2022-09-10T10:39:57.495Z,45.7
2022-09-10T10:41:12.762Z,45.9
2022-09-10T10:42:28.025Z,46
2022-09-10T10:43:43.293Z,45.4
2022-09-10T10:44:58.529Z,44.3
2022-09-10T10:46:14.787Z,44.9
2022-09-10T10:47:31.021Z,48.3
2022-09-10T10:48:47.265Z,43
2022-09-10T10:50:03.497Z,45.7
2022-09-10T10:51:19.734Z,43.9
2022-09-10T10:52:35.967Z,45.2
2022-09-10T10:53:52.221Z,46
2022-09-10T10:55:08.460Z,45.9
2022-09-10T10:56:24.692Z,50.9
2022-09-10T10:57:39.947Z,44.7
2022-09-10T10:58:55.218Z,46.2
2022-09-10T11:00:11.441Z,44.9
2022-09-10T11:01:27.682Z,45.9
2022-09-10T11:02:43.927Z,44.7
2022-09-10T11:04:00.177Z,50.1
2022-09-10T11:05:16.398Z,47.8
2022-09-10T11:06:32.641Z,48.9
2022-09-10T11:07:48.891Z,47.5
2022-09-10T11:09:05.115Z,47.5
2022-09-10T11:11:37.608Z,48.6
2022-09-10T11:12:53.847Z,46.5
2022-09-10T11:14:10.075Z,48.6
2022-09-10T11:15:25.336Z,47.8
2022-09-10T11:16:41.576Z,48.1
2022-09-10T11:17:57.822Z,47.6
2022-09-10T11:19:14.053Z,47.3
2022-09-10T11:20:30.286Z,46.7
2022-09-10T11:21:46.539Z,49.7
2022-09-10T11:23:02.781Z,49.1
2022-09-10T11:24:19.003Z,46
2022-09-10T11:25:34.270Z,48.6
2022-09-10T11:26:49.528Z,48.9
2022-09-10T11:28:05.774Z,47.6
2022-09-10T11:29:22.018Z,48.9
2022-09-10T11:30:38.255Z,48.8
2022-09-10T11:31:54.473Z,51.4
2022-09-10T11:33:10.717Z,48.5
2022-09-10T11:34:26.963Z,49.4
2022-09-10T11:35:43.196Z,48.5
2022-09-10T11:36:59.435Z,48.3
2022-09-10T11:38:15.673Z,48.9
2022-09-10T11:39:31.917Z,49.4
2022-09-10T11:40:48.160Z,48.6
2022-09-10T11:42:04.407Z,48.1
2022-09-10T11:43:19.648Z,48.9
2022-09-10T11:44:35.895Z,44.3
2022-09-10T11:45:52.132Z,47.2
2022-09-10T11:47:08.366Z,42.5
2022-09-10T11:48:24.616Z,43
2022-09-10T11:49:40.860Z,41.7
2022-09-10T11:50:57.082Z,43
2022-09-10T11:52:12.343Z,45.9
2022-09-10T11:53:27.606Z,46.7
2022-09-10T11:54:43.838Z,45.7
2022-09-10T11:56:00.073Z,45.1
2022-09-10T11:57:16.324Z,46.8
2022-09-10T11:58:32.557Z,43.1
2022-09-10T11:59:48.804Z,42.8
2022-09-10T12:01:05.030Z,46.2
2022-09-10T12:02:21.282Z,43.9
2022-09-10T12:03:37.509Z,42.8
2022-09-10T12:04:53.767Z,44.7
2022-09-10T12:06:09.991Z,44.9
2022-09-10T12:07:26.227Z,43.5
2022-09-10T12:08:42.486Z,45.7
2022-09-10T12:09:57.741Z,44.7
2022-09-10T12:11:13.976Z,44.3
2022-09-10T12:12:30.214Z,46.7
2022-09-10T12:13:46.449Z,51.8
2022-09-10T12:15:02.695Z,50.1
2022-09-10T12:16:18.921Z,48.1
2022-09-10T12:17:35.161Z,43.9
2022-09-10T12:18:50.415Z,46.8
2022-09-10T12:20:05.674Z,51.4
2022-09-10T12:21:20.940Z,45.6
2022-09-10T12:22:36.193Z,45.7
2022-09-10T12:23:52.446Z,44.4
2022-09-10T12:25:08.672Z,46.5
2022-09-10T12:26:24.909Z,49.6
2022-09-10T12:27:41.164Z,65
2022-09-10T12:28:57.398Z,48.6
2022-09-10T12:30:13.632Z,54.6
2022-09-10T12:31:29.883Z,45.6
2022-09-10T12:32:46.120Z,48.6
2022-09-10T12:34:02.360Z,47.8
2022-09-10T12:35:18.597Z,58.6
2022-09-10T12:36:34.835Z,50.1
2022-09-10T12:37:51.078Z,45.9
2022-09-10T12:39:06.322Z,48.9
2022-09-10T12:40:22.574Z,47.3
2022-09-10T12:41:38.796Z,54.1
2022-09-10T12:42:55.038Z,54.9
2022-09-10T12:44:11.276Z,56.2
2022-09-10T12:45:27.523Z,62.6
2022-09-10T12:46:43.763Z,58.8
2022-09-10T12:47:59.013Z,64.1
2022-09-10T12:49:14.285Z,56.7
2022-09-10T12:50:30.514Z,53.8
2022-09-10T12:51:46.750Z,55.1
2022-09-10T12:53:02.984Z,59.2
2022-09-10T12:54:19.226Z,57.8
2022-09-10T12:55:35.474Z,67.9
2022-09-10T12:56:51.705Z,61.8
2022-09-10T12:58:07.954Z,61.7
2022-09-10T12:59:24.184Z,52
2022-09-10T13:00:40.432Z,73.6
2022-09-10T13:01:56.681Z,51
2022-09-10T13:03:12.915Z,49.7
2022-09-10T13:04:29.162Z,49.4
2022-09-10T13:05:44.417Z,50.7
2022-09-10T13:07:00.642Z,51
2022-09-10T13:08:16.886Z,48.9
2022-09-10T13:09:33.126Z,50.7
2022-09-10T13:10:49.360Z,53.6
2022-09-10T13:12:05.593Z,50.7
2022-09-10T13:13:21.839Z,49.4
2022-09-10T13:14:38.072Z,52.3
2022-09-10T13:15:54.325Z,47.8
2022-09-10T13:17:10.550Z,50.4
2022-09-10T13:18:26.803Z,48.6
2022-09-10T13:19:43.028Z,52.2
2022-09-10T13:20:59.278Z,52
2022-09-10T13:22:14.518Z,48.9
2022-09-10T13:23:30.774Z,47.5
2022-09-10T13:24:47.020Z,49.3
2022-09-10T13:26:03.240Z,48.6
2022-09-10T13:27:19.478Z,48.8
2022-09-10T13:28:35.734Z,47.2
2022-09-10T13:29:51.957Z,48.1
2022-09-10T13:31:08.202Z,48.1
2022-09-10T13:32:24.435Z,45.4
2022-09-10T13:33:40.677Z,47.3
2022-09-10T13:34:56.927Z,47.8
2022-09-10T13:36:13.143Z,47.8
2022-09-10T13:37:29.397Z,45.2
2022-09-10T13:38:44.658Z,46
2022-09-10T13:40:00.897Z,46
2022-09-10T13:41:17.129Z,47
2022-09-10T13:42:33.366Z,45.4
2022-09-10T13:43:49.623Z,44.7
2022-09-10T13:45:05.844Z,46.7
2022-09-10T13:46:22.098Z,44.1
2022-09-10T13:47:38.328Z,44.9
2022-09-10T13:48:54.565Z,46.2
2022-09-10T13:50:10.807Z,44.6
2022-09-10T13:51:27.039Z,44.6
2022-09-10T13:52:43.288Z,45.4
2022-09-10T13:53:59.535Z,46.2
2022-09-10T13:55:14.786Z,45.2
2022-09-10T13:56:31.021Z,43.6
2022-09-10T13:57:47.264Z,47.3
2022-09-10T13:59:03.494Z,48.5
2022-09-10T14:00:19.724Z,46.4
2022-09-10T14:01:35.969Z,47.2
2022-09-10T14:02:52.218Z,48.6
2022-09-10T14:04:08.449Z,44.3
2022-09-10T14:05:24.705Z,41.7
2022-09-10T14:06:40.935Z,43.5
2022-09-10T14:07:57.170Z,43.3
2022-09-10T14:09:13.416Z,41.7
2022-09-10T14:10:29.657Z,42.8
2022-09-10T14:11:44.898Z,41.8
2022-09-10T14:13:01.145Z,40.4
2022-09-10T14:14:17.390Z,40.6
2022-09-10T14:15:33.629Z,41.8
2022-09-10T14:16:49.876Z,39.7
2022-09-10T14:18:06.100Z,41.8
2022-09-10T14:19:22.343Z,40.7
2022-09-10T14:20:38.585Z,41.2
2022-09-10T14:21:54.832Z,39.3
2022-09-10T14:23:11.059Z,39.9
2022-09-10T14:24:27.303Z,41
2022-09-10T14:25:43.522Z,42.2
2022-09-10T14:26:59.771Z,41.7
2022-09-10T14:28:15.035Z,40.1
2022-09-10T14:29:31.274Z,40.2
2022-09-10T14:30:47.514Z,42.2
2022-09-10T14:32:03.763Z,42.2
2022-09-10T14:33:19.984Z,41
2022-09-10T14:34:36.227Z,40.4
2022-09-10T14:35:52.467Z,39.9
2022-09-10T14:37:08.712Z,41.8
2022-09-10T14:38:24.951Z,40.6
2022-09-10T14:39:41.182Z,55.9
2022-09-10T14:40:57.422Z,42.2
2022-09-10T14:42:13.662Z,49.9
2022-09-10T14:43:29.900Z,42.7
2022-09-10T14:44:45.165Z,51.4
2022-09-10T14:46:01.389Z,43
2022-09-10T14:47:17.651Z,43.9
2022-09-10T14:48:33.872Z,44.9
2022-09-10T14:49:50.110Z,42.7
2022-09-10T14:51:06.359Z,42.8
2022-09-10T14:52:22.607Z,43.1
2022-09-10T14:53:38.829Z,41.7
2022-09-10T14:54:55.085Z,43.3
2022-09-10T14:56:11.307Z,43.8
2022-09-10T14:57:26.569Z,45.6
2022-09-10T14:58:42.821Z,43.1
2022-09-10T14:59:59.064Z,45.2
2022-09-10T15:01:15.285Z,44.7
2022-09-10T15:02:31.542Z,43.8
2022-09-10T15:03:47.770Z,44.1
2022-09-10T15:05:04.010Z,44.6
2022-09-10T15:07:36.491Z,44.1
2022-09-10T15:08:52.730Z,47.3
2022-09-10T15:10:08.972Z,49.3
2022-09-10T15:11:25.201Z,44.9
2022-09-10T15:12:41.450Z,44.9
2022-09-10T15:13:56.692Z,45.9
2022-09-10T15:15:12.951Z,46
2022-09-10T15:16:29.186Z,45.1
2022-09-10T15:17:45.415Z,46.5
2022-09-10T15:19:01.669Z,46.2
2022-09-10T15:20:17.897Z,45.9
2022-09-10T15:21:34.139Z,45.2
2022-09-10T15:22:50.368Z,45.9
2022-09-10T15:24:06.619Z,47.3
2022-09-10T15:25:22.847Z,47
2022-09-10T15:26:39.093Z,45.6
2022-09-10T15:27:55.324Z,47.2
2022-09-10T15:29:11.568Z,43.1
2022-09-10T15:30:26.839Z,46
2022-09-10T15:31:43.078Z,45.9
2022-09-10T15:32:59.310Z,47.5
2022-09-10T15:34:15.542Z,47.2
2022-09-10T15:35:31.795Z,43.9
2022-09-10T15:36:48.023Z,44.3
2022-09-10T15:38:04.260Z,46.8
2022-09-10T15:39:20.495Z,45.2
2022-09-10T15:40:36.747Z,50.4
2022-09-10T15:41:52.988Z,46.7
2022-09-10T15:43:09.227Z,50.1
2022-09-10T15:44:25.459Z,47
2022-09-10T15:45:41.701Z,45.2
2022-09-10T15:46:56.938Z,47.3
2022-09-10T15:48:13.194Z,46.2
2022-09-10T15:49:29.441Z,45.1
2022-09-10T15:50:45.673Z,45.1
2022-09-10T15:52:01.892Z,44.4
2022-09-10T15:53:18.156Z,45.7
2022-09-10T15:54:34.393Z,46.8
2022-09-10T15:55:50.618Z,47
2022-09-10T15:58:23.108Z,46.2
2022-09-10T15:59:39.337Z,48.1
2022-09-10T16:00:55.592Z,47.3
2022-09-10T16:02:11.817Z,46
2022-09-10T16:03:27.084Z,46.8
2022-09-10T16:04:43.311Z,47
2022-09-10T16:05:59.548Z,46.2
2022-09-10T16:07:15.797Z,48.6
2022-09-10T16:08:32.041Z,47.2
2022-09-10T16:09:48.277Z,47.2
2022-09-10T16:11:04.506Z,47
2022-09-10T16:12:20.762Z,47.2
2022-09-10T16:13:36.991Z,48.9
2022-09-10T16:14:53.230Z,48.6
2022-09-10T16:16:09.483Z,48.6
2022-09-10T16:17:25.691Z,49.7
2022-09-10T16:18:41.961Z,48.9
2022-09-10T16:19:57.204Z,51.7
2022-09-10T16:21:13.437Z,51.2
2022-09-10T16:22:29.679Z,49.1
2022-09-10T16:23:45.929Z,46.8
2022-09-10T16:25:02.170Z,48.3
2022-09-10T16:26:18.410Z,48.9
2022-09-10T16:27:34.636Z,50.9
2022-09-10T16:28:50.884Z,48.9
2022-09-10T16:30:07.120Z,53.1
2022-09-10T16:31:23.367Z,52.2
2022-09-10T16:32:39.606Z,53.4
2022-09-10T16:33:55.838Z,51.4
2022-09-10T16:35:12.086Z,51.4
2022-09-10T16:36:27.327Z,60.4
2022-09-10T16:37:43.567Z,50.1
2022-09-10T16:38:59.803Z,49.1
2022-09-10T16:40:16.058Z,50.1
2022-09-10T16:41:32.287Z,50.1
2022-09-10T16:42:48.510Z,48.5
2022-09-10T16:44:04.756Z,50.4
2022-09-10T16:45:20.998Z,49.9
2022-09-10T16:46:37.244Z,49.1
2022-09-10T16:47:53.476Z,49.9
2022-09-10T16:49:09.734Z,49.1
2022-09-10T16:50:25.961Z,48.5
2022-09-10T16:51:42.194Z,50.9
2022-09-10T16:52:57.470Z,50.4
2022-09-10T16:54:13.687Z,49.6
2022-09-10T16:55:29.917Z,51.4
2022-09-10T16:56:46.175Z,50.7
2022-09-10T16:58:02.399Z,51.4
2022-09-10T16:59:18.661Z,50.4
2022-09-10T17:00:34.891Z,51.4
2022-09-10T17:01:51.135Z,48.3
2022-09-10T17:03:07.373Z,51.2
2022-09-10T17:04:23.606Z,51.5
2022-09-10T17:05:39.850Z,51.5
2022-09-10T17:06:56.095Z,49.9
2022-09-10T17:08:12.325Z,48.3
2022-09-10T17:09:27.582Z,49.7
2022-09-10T17:10:43.817Z,52.3
2022-09-10T17:12:00.054Z,50.4
2022-09-10T17:13:16.292Z,51.8
2022-09-10T17:14:32.535Z,56.3
2022-09-10T17:15:48.777Z,49.7
2022-09-10T17:17:05.023Z,49.9
2022-09-10T17:18:21.248Z,49.3
2022-09-10T17:19:37.497Z,48.9
2022-09-10T17:20:53.726Z,50.9
2022-09-10T17:22:09.976Z,50.7
2022-09-10T17:23:26.204Z,51.8
2022-09-10T17:24:42.454Z,51.8
2022-09-10T17:25:57.708Z,54.4
2022-09-10T17:27:13.954Z,50.7
2022-09-10T17:28:30.197Z,52.3
2022-09-10T17:29:46.414Z,50.9
2022-09-10T17:31:02.658Z,50.7
2022-09-10T17:32:18.904Z,51.5
2022-09-10T17:33:35.138Z,48.9
2022-09-10T17:34:51.382Z,53.4
2022-09-10T17:36:07.631Z,52
2022-09-10T17:37:23.863Z,49.6
2022-09-10T17:38:40.106Z,51.5
2022-09-10T17:39:56.333Z,52
2022-09-10T17:41:12.587Z,50.7
2022-09-10T17:42:27.831Z,51.5
2022-09-10T17:43:44.073Z,50.2
2022-09-10T17:45:00.320Z,68.1
2022-09-10T17:46:16.542Z,68.9
2022-09-10T17:47:32.784Z,77.1
2022-09-10T17:48:49.027Z,50.7
2022-09-10T17:50:05.272Z,50.9
2022-09-10T17:51:21.509Z,50.4
2022-09-10T17:52:37.737Z,51.5
2022-09-10T17:53:53.995Z,50.5
2022-09-10T17:55:10.218Z,53.8
2022-09-10T17:56:26.470Z,48.6
2022-09-10T17:57:42.708Z,49.4
2022-09-10T17:58:57.961Z,50.4
2022-09-10T18:00:14.197Z,49.1
2022-09-10T18:01:30.422Z,51.7
2022-09-10T18:02:46.667Z,52.6
2022-09-10T18:04:02.914Z,48.1
2022-09-10T18:05:19.146Z,49.9
2022-09-10T18:06:35.399Z,51
2022-09-10T18:07:51.625Z,52.3
2022-09-10T18:09:07.863Z,50.5
2022-09-10T18:10:24.104Z,50.2
2022-09-10T18:11:40.000Z,51.5
2022-09-10T18:12:56.589Z,49.4
2022-09-10T18:14:12.815Z,51.8
2022-09-10T18:15:28.081Z,50.1
2022-09-10T18:16:44.318Z,49.1
2022-09-10T18:18:00.566Z,48.1
2022-09-10T18:19:16.809Z,49.9
2022-09-10T18:20:33.050Z,47.8
2022-09-10T18:21:49.287Z,47.5
2022-09-10T18:23:05.515Z,47.6
2022-09-10T18:24:21.755Z,47.2
2022-09-10T18:25:37.986Z,49.9
2022-09-10T18:26:54.227Z,48.9
2022-09-10T18:28:10.465Z,49.4
2022-09-10T18:29:26.714Z,48.9
2022-09-10T18:30:42.960Z,48
2022-09-10T18:31:58.218Z,47.2
2022-09-10T18:33:14.458Z,46.7
2022-09-10T18:34:30.672Z,47.2
2022-09-10T18:35:46.932Z,45.7
2022-09-10T18:37:03.154Z,45.7
2022-09-10T18:38:19.406Z,46
2022-09-10T18:39:35.636Z,47.3
2022-09-10T18:40:51.879Z,47.8
2022-09-10T18:42:08.127Z,46.2
2022-09-10T18:43:24.367Z,46.5
2022-09-10T18:44:40.598Z,44.1
2022-09-10T18:45:56.835Z,46.5
2022-09-10T18:47:13.073Z,43.8
2022-09-10T18:48:28.328Z,42.7
2022-09-10T18:49:44.574Z,44.4
2022-09-10T18:51:00.819Z,44.3
2022-09-10T18:52:17.038Z,43.1
2022-09-10T18:53:33.273Z,44.1
2022-09-10T18:54:49.527Z,45.1
2022-09-10T18:57:21.996Z,46.5
2022-09-10T18:58:38.244Z,47.6
2022-09-10T18:59:54.473Z,45.2
2022-09-10T19:01:10.716Z,46.2
2022-09-10T19:02:26.953Z,47.6
2022-09-10T19:03:43.202Z,48.6
2022-09-10T19:04:58.454Z,48.6
2022-09-10T19:06:14.684Z,46.8
2022-09-10T19:07:30.933Z,48
2022-09-10T19:08:47.167Z,47.3
2022-09-10T19:10:03.398Z,46.5
2022-09-10T19:11:19.656Z,49.3
2022-09-10T19:12:34.911Z,47.8
2022-09-10T19:13:51.155Z,46.8
2022-09-10T19:15:07.391Z,49.7
2022-09-10T19:16:23.627Z,45.6
2022-09-10T19:17:39.853Z,46.7
2022-09-10T19:18:56.099Z,48.8
2022-09-10T19:20:12.347Z,47.6
2022-09-10T19:21:28.583Z,46